Impacts TAF Board INFO
FOR SITUATIONAL AWARENESS. NOT TO BE USED FOR FLIGHT PLANNING PURPOSES.
IDs:

KRNH - New Richmond Muni, WI, US

Issued at 2327 UTC 15 Dec 2017
Updated at 0316 UTC 16 Dec 2017
Potential Impact None Slight Moderate High
Time<<16/16Z 16/17Z 16/18Z 16/19Z 16/20Z 16/21Z 16/22Z 16/23Z 17/00Z 17/01Z 17/02Z 17/03Z 17/04Z>>
Type PRVL PRVL PRVL PRVL PRVL PRVL PRVL PRVL
VIS >6 >6 >6 >6 >6 >6 >6 >6
CIG 25 25 25 25 25 25 20 20
Cover OVC OVC OVC OVC OVC OVC OVC OVC
FltCat MVFR MVFR MVFR MVFR MVFR MVFR MVFR MVFR
WX -- -- -- -- -- -- -- --
WDir 100 100 100 100 100 100 100 100
WSpd 8 8 8 8 8 8 5 5
WGst -- -- -- -- -- -- -- --

Raw TAF
KRNH 152327Z 1600/1624 VRB03KT 6SM -SHSN OVC035
  FM160200 VRB03KT 4SM -SN OVC030
  TEMPO 1602/1606 2SM -SN OVC020
  FM160800 10007KT P6SM VCSH OVC020
  FM161100 10008KT P6SM OVC025
  FM162200 10005KT P6SM OVC020


METAR Board
Radar Display
Forecast Discussion

FOR SITUATIONAL AWARENESS. NOT TO BE USED FOR FLIGHT PLANNING PURPOSES.